Armony — 5IM517 — position and weather

sailwx.info

Track history (hours):
 
Tides and Currents Weather Stations Pressure Air Temp Water Temp Dewpoint Dewpoint Depression Visibility Wind Speed Wind Dir Waves Ship Positions

Armony

Last reported at 2016-Jan-15 15:33 UTC. Time now 2016-Feb-12 01:28 UTC.
Position N 40°58' E 028°60'.
Warning: this ship's position is 27 days out of date.

Length 70 m; draft 3 m.

Type: Ship. MMSI: 677041700.

Date/timePositionNaut miles runAvg speedWind from/ knotsBaromVisibWave heightAir tempDewpointWater temp
2016-Jan-15 15:33N 40°58' E 028°60'8 7.7
2016-Jan-15 14:29N 40°51' E 029°04'5 4.5
2016-Jan-15 13:29N 40°52' E 029°10'0 0.0
2016-Jan-15 12:29N 40°52' E 029°10'0 0.0
2016-Jan-15 11:29N 40°52' E 029°10'0 0.0
2016-Jan-15 10:29N 40°52' E 029°10'0 0.0
2016-Jan-15 09:11N 40°52' E 029°10'0 0.0
2016-Jan-15 07:29N 40°52' E 029°10'0 0.0
2016-Jan-15 05:29N 40°52' E 029°10'0 0.0
2016-Jan-15 04:29N 40°52' E 029°10'0 0.0
2016-Jan-15 02:29N 40°52' E 029°10'0 0.0
2016-Jan-15 01:29N 40°52' E 029°10'0 0.0
2016-Jan-14 23:29N 40°52' E 029°10'0 0.0
2016-Jan-14 22:29N 40°52' E 029°10'0 0.0
2016-Jan-14 21:11N 40°52' E 029°10'0 0.0
2016-Jan-14 20:29N 40°52' E 029°10'0 0.0
2016-Jan-14 19:23N 40°52' E 029°10'0 0.0
2016-Jan-14 18:17N 40°52' E 029°10'0 0.0
2016-Jan-14 17:17N 40°52' E 029°10'0 0.0
2016-Jan-14 16:29N 40°51' E 029°10'0 0.0
2016-Jan-14 15:29N 40°52' E 029°10'0 0.0
2016-Jan-14 14:23N 40°52' E 029°10'0 0.0
2016-Jan-14 13:29N 40°52' E 029°10'0 0.0
2016-Jan-14 12:29N 40°52' E 029°10'0 0.0
2016-Jan-14 11:29N 40°52' E 029°10'0 0.0
2016-Jan-14 10:29N 40°52' E 029°10'0 0.0
2016-Jan-14 09:23N 40°52' E 029°10'0 0.0
2016-Jan-14 08:29N 40°52' E 029°10'0 0.0
2016-Jan-14 07:17N 40°52' E 029°10'0 0.1
2016-Jan-14 06:23N 40°51' E 029°10'0 0.0
2016-Jan-14 05:11N 40°51' E 029°10'0 0.0
2016-Jan-14 04:29N 40°51' E 029°10'0 0.0
2016-Jan-14 02:17N 40°51' E 029°10'0 0.0
2016-Jan-14 00:05N 40°52' E 029°10'0 0.1
2016-Jan-13 23:29N 40°52' E 029°10'0 0.1
2016-Jan-13 22:23N 40°52' E 029°10'0 0.0
2016-Jan-13 21:29N 40°52' E 029°10'0 0.1
2016-Jan-13 20:29N 40°51' E 029°10'0 0.0
2016-Jan-13 19:29N 40°52' E 029°10'0 0.0
2016-Jan-13 18:11N 40°52' E 029°10'0 0.0
2016-Jan-13 17:29N 40°52' E 029°10'0 0.0
2016-Jan-13 15:17N 40°52' E 029°10'2 2.2
2016-Jan-13 14:32N 40°50' E 029°12'8 8.1
2016-Jan-13 13:33N 40°45' E 029°20'9 8.8
2016-Jan-13 12:31N 40°45' E 029°32'  
Track history (hours):
 
Tides and Currents Weather Stations Pressure Air Temp Water Temp Dewpoint Dewpoint Depression Visibility Wind Speed Wind Dir Waves Ship Positions

Armony

Last reported at 2016-Jan-15 15:33 UTC. Time now 2016-Feb-12 01:28 UTC.
Position N 40°58' E 028°60'.
Warning: this ship's position is 27 days out of date.

Length 70 m; draft 3 m.

Type: Ship. MMSI: 677041700.

Date/timePositionNaut miles runAvg speedWind from/ knotsBaromVisibWave heightAir tempDewpointWater temp
2016-Jan-15 15:33N 40°58' E 028°60'8 7.7
2016-Jan-15 14:29N 40°51' E 029°04'5 4.5
2016-Jan-15 13:29N 40°52' E 029°10'0 0.0
2016-Jan-15 12:29N 40°52' E 029°10'0 0.0
2016-Jan-15 11:29N 40°52' E 029°10'0 0.0
2016-Jan-15 10:29N 40°52' E 029°10'0 0.0
2016-Jan-15 09:11N 40°52' E 029°10'0 0.0
2016-Jan-15 07:29N 40°52' E 029°10'0 0.0
2016-Jan-15 05:29N 40°52' E 029°10'0 0.0
2016-Jan-15 04:29N 40°52' E 029°10'0 0.0
2016-Jan-15 02:29N 40°52' E 029°10'0 0.0
2016-Jan-15 01:29N 40°52' E 029°10'0 0.0
2016-Jan-14 23:29N 40°52' E 029°10'0 0.0
2016-Jan-14 22:29N 40°52' E 029°10'0 0.0
2016-Jan-14 21:11N 40°52' E 029°10'0 0.0
2016-Jan-14 20:29N 40°52' E 029°10'0 0.0
2016-Jan-14 19:23N 40°52' E 029°10'0 0.0
2016-Jan-14 18:17N 40°52' E 029°10'0 0.0
2016-Jan-14 17:17N 40°52' E 029°10'0 0.0
2016-Jan-14 16:29N 40°51' E 029°10'0 0.0
2016-Jan-14 15:29N 40°52' E 029°10'0 0.0
2016-Jan-14 14:23N 40°52' E 029°10'0 0.0
2016-Jan-14 13:29N 40°52' E 029°10'0 0.0
2016-Jan-14 12:29N 40°52' E 029°10'0 0.0
2016-Jan-14 11:29N 40°52' E 029°10'0 0.0
2016-Jan-14 10:29N 40°52' E 029°10'0 0.0
2016-Jan-14 09:23N 40°52' E 029°10'0 0.0
2016-Jan-14 08:29N 40°52' E 029°10'0 0.0
2016-Jan-14 07:17N 40°52' E 029°10'0 0.1
2016-Jan-14 06:23N 40°51' E 029°10'0 0.0
2016-Jan-14 05:11N 40°51' E 029°10'0 0.0
2016-Jan-14 04:29N 40°51' E 029°10'0 0.0
2016-Jan-14 02:17N 40°51' E 029°10'0 0.0
2016-Jan-14 00:05N 40°52' E 029°10'0 0.1
2016-Jan-13 23:29N 40°52' E 029°10'0 0.1
2016-Jan-13 22:23N 40°52' E 029°10'0 0.0
2016-Jan-13 21:29N 40°52' E 029°10'0 0.1
2016-Jan-13 20:29N 40°51' E 029°10'0 0.0
2016-Jan-13 19:29N 40°52' E 029°10'0 0.0
2016-Jan-13 18:11N 40°52' E 029°10'0 0.0
2016-Jan-13 17:29N 40°52' E 029°10'0 0.0
2016-Jan-13 15:17N 40°52' E 029°10'2 2.2
2016-Jan-13 14:32N 40°50' E 029°12'8 8.1
2016-Jan-13 13:33N 40°45' E 029°20'9 8.8
2016-Jan-13 12:31N 40°45' E 029°32'  

Dump ship's entire track history